createdAt,value
2022-08-12T00:00:35.661Z,-68
2022-08-12T00:03:21.557Z,-67
2022-08-12T00:06:08.909Z,-67
2022-08-12T00:08:57.202Z,-68
2022-08-12T00:11:45.025Z,-68
2022-08-12T00:14:31.510Z,-68
2022-08-12T00:17:17.806Z,-68
2022-08-12T00:20:03.941Z,-68
2022-08-12T00:22:59.228Z,-67
2022-08-12T00:26:23.130Z,-68
2022-08-12T00:29:12.125Z,-68
2022-08-12T00:32:00.350Z,-68
2022-08-12T00:34:49.063Z,-68
2022-08-12T00:37:36.852Z,-69
2022-08-12T00:40:28.128Z,-69
2022-08-12T00:42:57.586Z,-68
2022-08-12T00:45:26.819Z,-67
2022-08-12T00:47:55.401Z,-67
2022-08-12T00:50:24.518Z,-67
2022-08-12T00:52:54.108Z,-67
2022-08-12T00:55:22.932Z,-67
2022-08-12T00:57:52.234Z,-67
2022-08-12T01:00:24.647Z,-67
2022-08-12T01:02:58.780Z,-67
2022-08-12T01:05:45.289Z,-67
2022-08-12T01:08:42.955Z,-66
2022-08-12T01:11:32.181Z,-66
2022-08-12T01:14:02.779Z,-66
2022-08-12T01:16:31.281Z,-68
2022-08-12T01:19:01.061Z,-68
2022-08-12T01:21:29.461Z,-68
2022-08-12T01:24:30.580Z,-67
2022-08-12T01:27:01.469Z,-67
2022-08-12T01:29:35.037Z,-67
2022-08-12T01:32:09.837Z,-67
2022-08-12T01:34:39.432Z,-67
2022-08-12T01:37:10.646Z,-67
2022-08-12T01:40:33.340Z,-67
2022-08-12T01:42:53.338Z,-67
2022-08-12T01:45:24.674Z,-67
2022-08-12T01:48:18.868Z,-66
2022-08-12T01:52:15.799Z,-67
2022-08-12T01:54:21.105Z,-67
2022-08-12T01:57:58.894Z,-66
2022-08-12T02:00:12.335Z,-67
2022-08-12T02:03:08.745Z,-67
2022-08-12T02:06:15.915Z,-67
2022-08-12T02:09:09.266Z,-67
2022-08-12T02:12:06.027Z,-67
2022-08-12T02:14:52.632Z,-67
2022-08-12T02:17:59.788Z,-67
2022-08-12T02:20:35.222Z,-67
2022-08-12T02:23:20.489Z,-67
2022-08-12T02:25:54.431Z,-66
2022-08-12T02:28:23.060Z,-66
2022-08-12T02:30:51.194Z,-68
2022-08-12T02:33:21.076Z,-67
2022-08-12T02:35:51.540Z,-67
2022-08-12T02:38:20.607Z,-67
2022-08-12T02:40:54.611Z,-67
2022-08-12T02:43:27.135Z,-67
2022-08-12T02:46:02.339Z,-67
2022-08-12T02:48:48.842Z,-67
2022-08-12T02:51:23.743Z,-68
2022-08-12T02:54:04.392Z,-67
2022-08-12T02:56:40.780Z,-67
2022-08-12T02:59:12.339Z,-67
2022-08-12T03:02:09.263Z,-66
2022-08-12T03:04:56.667Z,-67
2022-08-12T03:07:33.553Z,-67
2022-08-12T03:10:34.663Z,-67
2022-08-12T03:13:09.911Z,-67
2022-08-12T03:15:38.870Z,-67
2022-08-12T03:18:35.197Z,-67
2022-08-12T03:21:04.258Z,-67
2022-08-12T03:23:33.067Z,-68
2022-08-12T03:26:03.430Z,-69
2022-08-12T03:28:57.157Z,-68
2022-08-12T03:31:32.508Z,-69
2022-08-12T03:34:12.724Z,-70
2022-08-12T03:36:43.371Z,-70
2022-08-12T03:39:35.956Z,-70
2022-08-12T03:42:23.980Z,-70
2022-08-12T03:45:29.114Z,-70
2022-08-12T03:48:32.368Z,-70
2022-08-12T03:51:20.639Z,-69
2022-08-12T03:54:06.871Z,-69
2022-08-12T03:56:52.810Z,-69
2022-08-12T03:59:38.737Z,-69
2022-08-12T04:02:08.168Z,-68
2022-08-12T04:04:36.933Z,-69
2022-08-12T04:07:10.527Z,-68
2022-08-12T04:09:41.527Z,-69
2022-08-12T04:12:32.784Z,-68
2022-08-12T04:15:14.513Z,-68
2022-08-12T04:18:06.914Z,-68
2022-08-12T04:20:33.004Z,-70
2022-08-12T04:23:01.457Z,-68
2022-08-12T04:25:30.150Z,-68
2022-08-12T04:27:58.568Z,-68
2022-08-12T04:30:42.287Z,-69
2022-08-12T04:33:12.310Z,-68
2022-08-12T04:35:40.844Z,-68
2022-08-12T04:38:09.465Z,-68
2022-08-12T04:40:37.937Z,-68
2022-08-12T04:43:07.081Z,-68
2022-08-12T04:45:55.540Z,-68
2022-08-12T04:48:24.346Z,-69
2022-08-12T04:50:52.875Z,-69
2022-08-12T04:53:21.399Z,-68
2022-08-12T04:55:50.177Z,-68
2022-08-12T04:58:29.615Z,-68
2022-08-12T05:00:58.464Z,-68
2022-08-12T05:03:28.258Z,-68
2022-08-12T05:05:57.719Z,-68
2022-08-12T05:08:26.870Z,-68
2022-08-12T05:10:55.484Z,-68
2022-08-12T05:13:32.646Z,-69
2022-08-12T05:16:05.642Z,-68
2022-08-12T05:18:40.219Z,-69
2022-08-12T05:21:14.320Z,-69
2022-08-12T05:23:43.115Z,-69
2022-08-12T05:26:11.922Z,-69
2022-08-12T05:28:40.563Z,-68
2022-08-12T05:31:08.973Z,-69
2022-08-12T05:33:40.212Z,-69
2022-08-12T05:36:15.234Z,-69
2022-08-12T05:38:57.922Z,-68
2022-08-12T05:41:29.644Z,-69
2022-08-12T05:44:04.168Z,-69
2022-08-12T05:46:34.981Z,-69
2022-08-12T05:49:04.155Z,-69
2022-08-12T05:51:40.109Z,-69
2022-08-12T05:54:10.465Z,-69
2022-08-12T05:56:40.293Z,-67
2022-08-12T05:59:11.147Z,-67
2022-08-12T06:02:12.323Z,-67
2022-08-12T06:04:28.871Z,-67
2022-08-12T06:06:57.430Z,-67
2022-08-12T06:09:30.259Z,-68
2022-08-12T06:12:05.916Z,-69
2022-08-12T06:14:37.976Z,-68
2022-08-12T06:17:09.360Z,-68
2022-08-12T06:20:27.029Z,-68
2022-08-12T06:22:27.794Z,-68
2022-08-12T06:24:56.335Z,-68
2022-08-12T06:27:24.704Z,-68
2022-08-12T06:30:10.147Z,-68
2022-08-12T06:32:51.601Z,-68
2022-08-12T06:35:48.209Z,-68
2022-08-12T06:38:22.219Z,-68
2022-08-12T06:41:15.132Z,-68
2022-08-12T06:44:04.825Z,-68
2022-08-12T06:46:33.440Z,-68
2022-08-12T06:49:01.836Z,-68
2022-08-12T06:51:32.816Z,-68
2022-08-12T06:54:02.093Z,-68
2022-08-12T06:57:01.753Z,-67
2022-08-12T06:59:21.393Z,-67
2022-08-12T07:01:51.486Z,-67
2022-08-12T07:04:38.285Z,-68
2022-08-12T07:07:10.385Z,-68
2022-08-12T07:10:03.624Z,-70
2022-08-12T07:12:31.666Z,-68
2022-08-12T07:15:02.071Z,-68
2022-08-12T07:17:36.462Z,-68
2022-08-12T07:20:35.739Z,-68
2022-08-12T07:23:03.740Z,-68
2022-08-12T07:25:37.886Z,-68
2022-08-12T07:28:16.619Z,-68
2022-08-12T07:30:49.205Z,-68
2022-08-12T07:33:22.297Z,-69
2022-08-12T07:35:54.110Z,-68
2022-08-12T07:38:29.344Z,-69
2022-08-12T07:41:15.578Z,-69
2022-08-12T07:43:53.746Z,-68
2022-08-12T07:46:27.644Z,-69
2022-08-12T07:49:02.185Z,-69
2022-08-12T07:51:30.666Z,-68
2022-08-12T07:54:02.965Z,-68
2022-08-12T07:56:32.318Z,-68
2022-08-12T07:59:03.156Z,-69
2022-08-12T08:01:32.824Z,-68
2022-08-12T08:04:19.585Z,-69
2022-08-12T08:06:48.933Z,-69
2022-08-12T08:09:21.227Z,-69
2022-08-12T08:12:19.101Z,-68
2022-08-12T08:14:48.404Z,-69
2022-08-12T08:17:18.860Z,-69
2022-08-12T08:20:03.862Z,-70
2022-08-12T08:22:41.372Z,-69
2022-08-12T08:25:35.095Z,-69
2022-08-12T08:28:02.725Z,-68
2022-08-12T08:30:33.737Z,-68
2022-08-12T08:33:02.345Z,-68
2022-08-12T08:35:46.838Z,-68
2022-08-12T08:38:32.374Z,-68
2022-08-12T08:42:19.272Z,-68
2022-08-12T08:44:12.610Z,-68
2022-08-12T08:46:44.711Z,-68
2022-08-12T08:49:13.607Z,-68
2022-08-12T08:51:42.584Z,-68
2022-08-12T08:54:12.176Z,-68
2022-08-12T08:56:44.338Z,-68
2022-08-12T08:59:15.814Z,-68
2022-08-12T09:01:44.773Z,-68
2022-08-12T09:05:11.494Z,-68
2022-08-12T09:10:03.254Z,-68
2022-08-12T09:12:54.673Z,-68
2022-08-12T09:15:35.457Z,-68
2022-08-12T09:18:10.516Z,-68
2022-08-12T09:20:42.424Z,-67
2022-08-12T09:26:03.900Z,-66
2022-08-12T09:28:37.206Z,-66
2022-08-12T09:32:02.928Z,-67
2022-08-12T09:34:27.691Z,-68
2022-08-12T09:37:00.408Z,-67
2022-08-12T09:40:06.208Z,-67
2022-08-12T09:42:57.718Z,-68
2022-08-12T09:46:06.429Z,-67
2022-08-12T09:48:22.305Z,-66
2022-08-12T09:50:55.679Z,-67
2022-08-12T09:53:38.767Z,-67
2022-08-12T09:57:00.230Z,-66
2022-08-12T09:59:01.768Z,-67
2022-08-12T10:01:35.265Z,-67
2022-08-12T10:04:20.751Z,-66
2022-08-12T10:06:55.432Z,-67
2022-08-12T10:09:28.494Z,-67
2022-08-12T10:12:43.755Z,-67
2022-08-12T10:16:02.618Z,-68
2022-08-12T10:18:09.213Z,-67
2022-08-12T10:20:38.063Z,-68
2022-08-12T10:23:06.676Z,-68
2022-08-12T10:26:34.686Z,-66
2022-08-12T10:29:01.975Z,-66
2022-08-12T10:32:01.621Z,-66
2022-08-12T10:34:25.831Z,-68
2022-08-12T10:37:22.605Z,-68
2022-08-12T10:40:07.019Z,-67
2022-08-12T10:43:00.645Z,-67
2022-08-12T10:45:31.866Z,-68
2022-08-12T10:48:19.387Z,-67
2022-08-12T10:51:00.334Z,-67
2022-08-12T10:53:44.907Z,-67
2022-08-12T10:56:19.358Z,-67
2022-08-12T10:58:48.384Z,-68
2022-08-12T11:01:50.253Z,-66
2022-08-12T11:04:19.244Z,-68
2022-08-12T11:07:06.192Z,-67
2022-08-12T11:10:00.525Z,-67
2022-08-12T11:12:55.298Z,-66
2022-08-12T11:15:33.107Z,-67
2022-08-12T11:18:17.943Z,-66
2022-08-12T11:20:49.276Z,-66
2022-08-12T11:23:25.915Z,-67
2022-08-12T11:26:08.470Z,-66
2022-08-12T11:28:38.425Z,-66
2022-08-12T11:31:13.288Z,-67
2022-08-12T11:34:06.045Z,-67
2022-08-12T11:36:32.745Z,-68
2022-08-12T11:39:07.979Z,-67
2022-08-12T11:44:36.272Z,-69
2022-08-12T11:47:09.395Z,-69
2022-08-12T11:49:38.121Z,-69
2022-08-12T11:52:35.319Z,-69
2022-08-12T11:54:54.870Z,-70
2022-08-12T11:58:32.237Z,-70
2022-08-12T12:03:00.913Z,-70
2022-08-12T12:05:41.795Z,-69
2022-08-12T12:08:41.747Z,-70
2022-08-12T12:11:11.125Z,-70
2022-08-12T12:14:07.683Z,-70
2022-08-12T12:16:28.126Z,-70
2022-08-12T12:18:58.446Z,-70
2022-08-12T12:21:46.978Z,-70
2022-08-12T12:24:21.108Z,-69
2022-08-12T12:27:00.818Z,-69
2022-08-12T12:30:19.922Z,-69
2022-08-12T12:32:29.516Z,-70
2022-08-12T12:35:13.589Z,-69
2022-08-12T12:38:12.544Z,-71
2022-08-12T12:40:51.423Z,-69
2022-08-12T12:43:28.679Z,-69
2022-08-12T12:46:08.942Z,-69
2022-08-12T12:48:39.594Z,-70
2022-08-12T12:51:22.184Z,-70
2022-08-12T12:54:10.021Z,-69
2022-08-12T12:56:42.249Z,-70
2022-08-12T12:59:54.528Z,-70
2022-08-12T13:02:08.218Z,-69
2022-08-12T13:04:38.169Z,-70
2022-08-12T13:07:07.910Z,-70
2022-08-12T13:09:36.970Z,-70
2022-08-12T13:12:10.780Z,-70
2022-08-12T13:14:40.298Z,-69
2022-08-12T13:17:14.513Z,-70
2022-08-12T13:19:46.889Z,-70
2022-08-12T13:22:21.042Z,-70
2022-08-12T13:24:55.505Z,-70
2022-08-12T13:27:34.966Z,-69
2022-08-12T13:30:11.401Z,-69
2022-08-12T13:32:56.550Z,-69
2022-08-12T13:36:05.111Z,-70
2022-08-12T13:38:43.823Z,-69
2022-08-12T13:41:33.677Z,-69
2022-08-12T13:44:03.981Z,-69
2022-08-12T13:46:32.586Z,-69
2022-08-12T13:49:02.590Z,-69
2022-08-12T13:51:41.257Z,-69
2022-08-12T13:54:14.081Z,-68
2022-08-12T13:56:42.728Z,-69
2022-08-12T13:59:18.437Z,-69
2022-08-12T14:01:56.690Z,-69
2022-08-12T14:04:25.147Z,-69
2022-08-12T14:06:55.900Z,-70
2022-08-12T14:09:25.961Z,-69
2022-08-12T14:11:59.990Z,-69
2022-08-12T14:14:35.607Z,-69
2022-08-12T14:17:10.346Z,-69
2022-08-12T14:20:00.889Z,-69
2022-08-12T14:22:30.370Z,-70
2022-08-12T14:25:01.340Z,-71
2022-08-12T14:28:02.644Z,-69
2022-08-12T14:30:24.334Z,-69
2022-08-12T14:32:58.070Z,-69
2022-08-12T14:35:27.530Z,-70
2022-08-12T14:37:59.098Z,-69
2022-08-12T14:40:31.376Z,-70
2022-08-12T14:43:00.691Z,-69
2022-08-12T14:45:44.411Z,-69
2022-08-12T14:48:24.165Z,-69
2022-08-12T14:51:09.544Z,-68
2022-08-12T14:55:36.112Z,-69
2022-08-12T14:57:01.359Z,-69
2022-08-12T14:59:57.131Z,-69
2022-08-12T15:02:28.712Z,-69
2022-08-12T15:04:59.561Z,-69
2022-08-12T15:07:33.670Z,-69
2022-08-12T15:10:25.035Z,-70
2022-08-12T15:13:07.382Z,-69
2022-08-12T15:15:45.981Z,-69
2022-08-12T15:18:22.831Z,-70
2022-08-12T15:20:59.259Z,-69
2022-08-12T15:23:54.818Z,-70
2022-08-12T15:26:27.372Z,-69
2022-08-12T15:28:58.473Z,-69
2022-08-12T15:31:27.900Z,-70
2022-08-12T15:33:58.055Z,-70
2022-08-12T15:36:54.377Z,-69
2022-08-12T15:39:16.733Z,-70
2022-08-12T15:41:50.434Z,-72
2022-08-12T15:44:37.710Z,-69
2022-08-12T15:47:08.642Z,-71
2022-08-12T15:49:54.779Z,-70
2022-08-12T15:52:29.924Z,-70
2022-08-12T15:55:06.386Z,-71
2022-08-12T15:57:41.431Z,-71
2022-08-12T16:00:29.032Z,-71
2022-08-12T16:03:05.334Z,-71
2022-08-12T16:06:15.521Z,-72
2022-08-12T16:08:27.570Z,-74
2022-08-12T16:10:57.641Z,-72
2022-08-12T16:13:34.196Z,-72
2022-08-12T16:16:22.645Z,-71
2022-08-12T16:18:59.466Z,-72
2022-08-12T16:21:51.882Z,-72
2022-08-12T16:24:18.660Z,-71
2022-08-12T16:26:51.252Z,-72
2022-08-12T16:29:38.613Z,-72
2022-08-12T16:32:24.474Z,-72
2022-08-12T16:35:00.658Z,-70
2022-08-12T16:38:24.615Z,-70
2022-08-12T16:40:22.915Z,-70
2022-08-12T16:42:53.665Z,-70
2022-08-12T16:45:32.240Z,-71
2022-08-12T16:48:34.757Z,-71
2022-08-12T16:51:11.818Z,-72
2022-08-12T16:53:44.023Z,-70
2022-08-12T16:56:14.769Z,-70
2022-08-12T16:58:44.051Z,-69
2022-08-12T17:01:14.935Z,-70
2022-08-12T17:03:47.003Z,-70
2022-08-12T17:06:27.804Z,-69
2022-08-12T17:09:02.737Z,-71
2022-08-12T17:11:34.747Z,-71
2022-08-12T17:14:09.318Z,-71
2022-08-12T17:16:40.343Z,-70
2022-08-12T17:19:10.270Z,-70
2022-08-12T17:21:51.832Z,-69
2022-08-12T17:24:30.470Z,-70
2022-08-12T17:27:02.158Z,-71
2022-08-12T17:30:00.847Z,-70
2022-08-12T17:32:31.605Z,-70
2022-08-12T17:35:18.955Z,-70
2022-08-12T17:37:50.806Z,-70
2022-08-12T17:40:36.282Z,-70
2022-08-12T17:43:56.901Z,-68
2022-08-12T18:00:29.380Z,-69
2022-08-12T18:02:59.784Z,-69
2022-08-12T18:05:55.377Z,-68
2022-08-12T18:08:19.148Z,-68
2022-08-12T18:11:11.905Z,-68
2022-08-12T18:13:42.718Z,-68
2022-08-12T18:16:13.943Z,-67
2022-08-12T18:18:51.803Z,-66
2022-08-12T18:21:27.889Z,-67
2022-08-12T18:24:19.832Z,-67
2022-08-12T18:26:51.017Z,-68
2022-08-12T18:29:21.337Z,-68
2022-08-12T18:31:59.855Z,-67
2022-08-12T18:34:33.458Z,-69
2022-08-12T18:37:26.915Z,-67
2022-08-12T18:40:06.155Z,-66
2022-08-12T18:42:34.896Z,-66
2022-08-12T18:45:05.464Z,-66
2022-08-12T18:47:50.202Z,-66
2022-08-12T18:50:24.444Z,-67
2022-08-12T18:52:53.958Z,-66
2022-08-12T18:55:26.075Z,-66
2022-08-12T18:58:10.055Z,-66
2022-08-12T19:00:40.024Z,-67
2022-08-12T19:03:38.682Z,-66
2022-08-12T19:06:07.763Z,-68
2022-08-12T19:08:47.080Z,-66
2022-08-12T19:11:33.457Z,-67
2022-08-12T19:14:21.530Z,-66
2022-08-12T19:17:04.755Z,-66
2022-08-12T19:19:41.500Z,-67
2022-08-12T19:22:10.519Z,-67
2022-08-12T19:24:56.284Z,-67
2022-08-12T19:27:25.435Z,-68
2022-08-12T19:30:06.974Z,-67
2022-08-12T19:32:37.805Z,-67
2022-08-12T19:38:06.605Z,-66
2022-08-12T19:40:38.646Z,-67
2022-08-12T19:43:20.146Z,-66
2022-08-12T19:45:57.150Z,-67
2022-08-12T19:48:30.663Z,-66
2022-08-12T19:51:08.633Z,-67
2022-08-12T19:53:56.938Z,-67
2022-08-12T19:56:27.695Z,-66
2022-08-12T19:59:14.597Z,-67
2022-08-12T20:02:03.408Z,-67
2022-08-12T20:04:37.773Z,-67
2022-08-12T20:07:23.905Z,-67
2022-08-12T20:09:54.165Z,-67
2022-08-12T20:12:31.747Z,-67
2022-08-12T20:15:05.660Z,-69
2022-08-12T20:17:36.237Z,-70
2022-08-12T20:20:28.238Z,-68
2022-08-12T20:22:58.098Z,-69
2022-08-12T20:25:28.547Z,-69
2022-08-12T20:28:15.068Z,-68
2022-08-12T20:30:53.409Z,-69
2022-08-12T20:33:50.094Z,-69
2022-08-12T20:36:40.971Z,-68
2022-08-12T20:39:37.508Z,-69
2022-08-12T20:41:58.918Z,-69
2022-08-12T20:44:28.430Z,-69
2022-08-12T20:46:59.175Z,-69
2022-08-12T20:49:31.780Z,-67
2022-08-12T20:52:02.339Z,-68
2022-08-12T20:54:34.138Z,-69
2022-08-12T20:57:08.737Z,-67
2022-08-12T20:59:47.738Z,-68
2022-08-12T21:02:24.439Z,-68
2022-08-12T21:05:19.807Z,-68
2022-08-12T21:07:52.166Z,-68
2022-08-12T21:10:21.752Z,-68
2022-08-12T21:12:55.255Z,-69
2022-08-12T21:15:30.643Z,-69
2022-08-12T21:18:28.450Z,-69
2022-08-12T21:20:58.943Z,-69
2022-08-12T21:23:30.977Z,-69
2022-08-12T21:26:16.192Z,-68
2022-08-12T21:28:58.082Z,-69
2022-08-12T21:32:40.854Z,-68
2022-08-12T21:34:26.013Z,-68
2022-08-12T21:37:03.852Z,-68
2022-08-12T21:39:52.192Z,-67
2022-08-12T21:42:26.262Z,-68
2022-08-12T21:45:47.055Z,-68
2022-08-12T21:47:45.885Z,-67
2022-08-12T21:50:18.289Z,-68
2022-08-12T21:52:48.738Z,-67
2022-08-12T21:55:20.170Z,-68
2022-08-12T21:57:54.631Z,-68
2022-08-12T22:00:36.881Z,-68
2022-08-12T22:04:07.932Z,-68
2022-08-12T22:06:30.846Z,-68
2022-08-12T22:09:16.268Z,-67
2022-08-12T22:11:49.073Z,-68
2022-08-12T22:14:25.207Z,-68
2022-08-12T22:16:57.027Z,-69
2022-08-12T22:19:26.763Z,-68
2022-08-12T22:21:58.833Z,-69
2022-08-12T22:24:32.545Z,-70
2022-08-12T22:27:18.234Z,-69
2022-08-12T22:30:16.014Z,-70
2022-08-12T22:32:50.578Z,-69
2022-08-12T22:35:55.438Z,-69
2022-08-12T22:38:29.159Z,-68
2022-08-12T22:41:30.104Z,-69
2022-08-12T22:44:16.371Z,-69
2022-08-12T22:47:02.396Z,-69
2022-08-12T22:49:48.709Z,-69
2022-08-12T22:52:23.186Z,-67
2022-08-12T22:55:03.019Z,-68
2022-08-12T22:57:54.052Z,-67
2022-08-12T23:00:27.307Z,-67
2022-08-12T23:03:02.707Z,-67
2022-08-12T23:06:09.515Z,-68
2022-08-12T23:08:31.611Z,-67
2022-08-12T23:11:06.109Z,-68
2022-08-12T23:13:54.691Z,-67
2022-08-12T23:16:33.496Z,-68
2022-08-12T23:19:17.869Z,-68
2022-08-12T23:22:05.677Z,-67
2022-08-12T23:24:56.431Z,-67
2022-08-12T23:27:51.545Z,-67
2022-08-12T23:30:31.585Z,-67
2022-08-12T23:33:02.147Z,-68
2022-08-12T23:35:53.935Z,-66
2022-08-12T23:38:31.742Z,-67
2022-08-12T23:41:03.627Z,-67
2022-08-12T23:43:39.330Z,-69
2022-08-12T23:46:09.849Z,-70
2022-08-12T23:48:38.740Z,-70
2022-08-12T23:51:22.771Z,-70
2022-08-12T23:53:54.683Z,-70
2022-08-12T23:56:24.807Z,-70
2022-08-12T23:58:55.280Z,-70
